Time;durP1;ratioP1;P1;durP2;ratioP2;P2;SDS_P1;SDS_P2;PMS_P1;PMS_P2;Temp;Humidity;BMP_temperature;BMP_pressure;BME280_temperature;BME280_humidity;BME280_pressure;Samples;Min_cycle;Max_cycle;Signal;HPM_P1;HPM_P2
2023/08/03 00:02:28;;;;;;;4.90;3.22;;;18.20;99.90;;;;;;4989533;28;20027;-57
2023/08/03 00:05:17;;;;;;;4.93;3.50;;;18.20;99.90;;;;;;4990776;28;20454;-55
2023/08/03 00:08:03;;;;;;;6.85;3.78;;;18.20;99.90;;;;;;5008326;28;20120;-55
2023/08/03 00:10:49;;;;;;;6.75;3.80;;;18.10;99.90;;;;;;5009340;28;20037;-52
2023/08/03 00:13:35;;;;;;;6.68;3.05;;;18.20;99.90;;;;;;5010660;28;20030;-55
2023/08/03 00:16:21;;;;;;;4.85;3.00;;;18.20;99.90;;;;;;4996287;28;20030;-54
2023/08/03 00:19:06;;;;;;;5.28;3.10;;;18.20;99.90;;;;;;5009997;28;20028;-54
2023/08/03 00:21:52;;;;;;;6.53;3.60;;;18.20;99.90;;;;;;5009992;28;20483;-54
2023/08/03 00:24:38;;;;;;;4.68;3.15;;;18.20;99.90;;;;;;4996164;28;20026;-55
2023/08/03 00:27:25;;;;;;;6.85;3.40;;;18.20;99.90;;;;;;5010305;28;20402;-54
2023/08/03 00:30:11;;;;;;;5.28;2.85;;;18.20;99.90;;;;;;5010921;28;20029;-55
2023/08/03 00:32:57;;;;;;;5.93;3.28;;;18.20;99.90;;;;;;5012579;28;20026;-52
2023/08/03 00:35:43;;;;;;;5.07;3.00;;;18.30;99.90;;;;;;5004241;28;20511;-52
2023/08/03 00:38:29;;;;;;;7.10;3.50;;;18.20;99.90;;;;;;4991124;28;20031;-53
2023/08/03 00:41:14;;;;;;;5.55;3.33;;;18.20;99.90;;;;;;4991544;28;20031;-53
2023/08/03 00:44:01;;;;;;;11.20;3.28;;;18.20;99.90;;;;;;4990442;28;20385;-52
2023/08/03 00:46:46;;;;;;;3.88;3.10;;;18.20;99.90;;;;;;4991164;28;20022;-55
2023/08/03 00:49:32;;;;;;;7.13;3.30;;;18.20;99.90;;;;;;4989849;28;20114;-55
2023/08/03 00:52:20;;;;;;;5.30;3.30;;;18.20;99.90;;;;;;4990083;28;20026;-56
2023/08/03 00:55:06;;;;;;;5.22;3.33;;;18.30;99.90;;;;;;4990697;28;20042;-55
2023/08/03 00:57:52;;;;;;;4.50;2.90;;;18.20;99.90;;;;;;4979040;28;20057;-54
2023/08/03 01:00:38;;;;;;;4.68;3.08;;;18.30;99.90;;;;;;4994052;28;20038;-54
2023/08/03 01:03:24;;;;;;;6.43;3.50;;;18.30;99.90;;;;;;5011873;28;20647;-55
2023/08/03 01:06:10;;;;;;;5.82;3.15;;;18.30;99.90;;;;;;5013330;28;20057;-52
2023/08/03 01:08:59;;;;;;;5.63;3.50;;;18.30;99.90;;;;;;5013024;28;20058;-55
2023/08/03 01:11:46;;;;;;;7.00;3.60;;;18.30;99.90;;;;;;5013787;28;20081;-55
2023/08/03 01:14:32;;;;;;;6.60;3.28;;;18.30;99.90;;;;;;5013002;28;20110;-53
2023/08/03 01:17:18;;;;;;;9.68;3.60;;;18.40;99.90;;;;;;5013636;28;20081;-55
2023/08/03 01:20:05;;;;;;;10.73;4.10;;;18.40;99.90;;;;;;5012134;28;20030;-58
2023/08/03 01:22:51;;;;;;;7.65;3.63;;;18.40;99.90;;;;;;5013449;28;20391;-51
2023/08/03 01:25:37;;;;;;;9.23;3.40;;;18.40;99.90;;;;;;5013519;28;20036;-54
2023/08/03 01:28:23;;;;;;;10.52;3.65;;;18.30;99.90;;;;;;5013115;28;20030;-54
2023/08/03 01:31:09;;;;;;;5.78;4.18;;;18.30;99.90;;;;;;4999172;28;20084;-53
2023/08/03 01:33:55;;;;;;;7.72;3.22;;;18.30;99.90;;;;;;5013932;28;20069;-54
2023/08/03 01:36:41;;;;;;;6.13;3.85;;;18.30;99.90;;;;;;5013085;28;20026;-56
2023/08/03 01:39:27;;;;;;;9.60;3.83;;;18.30;99.90;;;;;;5012566;28;20026;-50
2023/08/03 01:42:14;;;;;;;7.57;3.38;;;18.30;99.90;;;;;;5013430;28;20037;-56
2023/08/03 01:45:00;;;;;;;7.60;3.67;;;18.20;99.90;;;;;;5013362;28;20052;-54
2023/08/03 01:47:46;;;;;;;6.50;3.30;;;18.20;99.90;;;;;;5013005;28;20058;-53
2023/08/03 01:50:32;;;;;;;7.75;3.45;;;18.20;99.90;;;;;;5013246;28;20026;-55
2023/08/03 01:53:18;;;;;;;11.63;3.75;;;18.20;99.90;;;;;;5013195;28;20022;-51
2023/08/03 01:56:04;;;;;;;8.40;3.00;;;18.20;99.90;;;;;;5010719;28;20060;-53
2023/08/03 01:58:49;;;;;;;8.75;3.97;;;18.30;99.90;;;;;;4992341;28;20077;-52
2023/08/03 02:01:35;;;;;;;10.05;3.38;;;18.30;99.90;;;;;;4993128;28;20058;-54
2023/08/03 02:04:21;;;;;;;12.90;4.30;;;18.30;99.90;;;;;;4994146;28;20029;-53
2023/08/03 02:07:37;;;;;;;7.20;3.95;;;18.40;99.90;;;;;;4992471;28;20030;-54
2023/08/03 02:10:24;;;;;;;11.05;4.05;;;18.40;99.90;;;;;;4992148;28;20442;-56
2023/08/03 02:13:10;;;;;;;8.00;3.40;;;18.40;99.90;;;;;;4992904;28;20466;-53
2023/08/03 02:15:56;;;;;;;8.73;3.60;;;18.40;99.90;;;;;;4993225;28;20046;-52
2023/08/03 02:18:42;;;;;;;7.00;3.10;;;18.40;99.90;;;;;;4992020;28;20037;-55
2023/08/03 02:21:27;;;;;;;7.90;3.25;;;18.40;99.90;;;;;;4992628;28;20054;-51
2023/08/03 02:24:13;;;;;;;11.27;4.25;;;18.40;99.90;;;;;;4992611;28;20026;-55
2023/08/03 02:26:59;;;;;;;11.98;4.13;;;18.50;99.90;;;;;;4978298;28;20446;-56
2023/08/03 02:29:45;;;;;;;11.00;4.13;;;18.40;99.90;;;;;;4993193;28;20526;-52
2023/08/03 02:32:31;;;;;;;11.07;4.07;;;18.40;99.90;;;;;;4992867;28;20048;-55
2023/08/03 02:35:17;;;;;;;7.18;3.30;;;18.40;99.90;;;;;;4993130;28;20442;-55
2023/08/03 02:38:03;;;;;;;10.57;3.97;;;18.50;99.90;;;;;;4991681;28;20034;-53
2023/08/03 02:40:49;;;;;;;8.07;3.63;;;18.50;99.90;;;;;;4991880;28;20108;-52
2023/08/03 02:43:35;;;;;;;9.85;3.60;;;18.40;99.90;;;;;;4993197;28;20034;-49
2023/08/03 02:46:21;;;;;;;11.60;3.90;;;18.40;99.90;;;;;;4992583;28;20030;-55
2023/08/03 02:49:07;;;;;;;7.40;3.38;;;18.40;99.90;;;;;;4978973;28;20459;-52
2023/08/03 02:51:53;;;;;;;10.38;3.30;;;18.40;99.90;;;;;;4992445;28;20030;-48
2023/08/03 02:54:38;;;;;;;11.25;4.20;;;18.50;99.90;;;;;;4992243;28;20376;-50
2023/08/03 02:57:24;;;;;;;7.93;3.50;;;18.40;99.90;;;;;;4977125;28;20057;-48
2023/08/03 03:00:11;;;;;;;7.18;3.38;;;18.50;99.90;;;;;;4992663;28;20054;-51
2023/08/03 03:02:57;;;;;;;9.60;4.50;;;18.60;99.90;;;;;;4994243;28;20061;-49
2023/08/03 03:05:43;;;;;;;8.48;3.65;;;18.50;99.90;;;;;;4992596;28;20178;-48
2023/08/03 03:08:29;;;;;;;11.30;4.00;;;18.50;99.90;;;;;;4977272;28;20101;-50
2023/08/03 03:11:15;;;;;;;12.52;3.45;;;18.40;99.90;;;;;;4992785;28;20030;-53
2023/08/03 03:14:00;;;;;;;6.20;2.70;;;18.50;99.90;;;;;;4991612;28;20026;-53
2023/08/03 03:16:46;;;;;;;12.40;4.20;;;18.40;99.90;;;;;;4991228;28;20030;-55
2023/08/03 03:19:32;;;;;;;9.35;4.00;;;18.40;99.90;;;;;;4991142;28;20030;-50
2023/08/03 03:22:18;;;;;;;7.95;3.88;;;18.40;99.90;;;;;;4992825;28;20388;-51
2023/08/03 03:25:05;;;;;;;4.18;2.90;;;18.40;99.90;;;;;;4993329;28;20033;-54
2023/08/03 03:27:50;;;;;;;6.50;3.45;;;18.40;99.90;;;;;;4991558;28;20496;-53
2023/08/03 03:30:36;;;;;;;8.68;3.38;;;18.40;99.90;;;;;;4977908;28;20027;-47
2023/08/03 03:33:22;;;;;;;8.45;3.38;;;18.40;99.90;;;;;;4992584;28;20038;-50
2023/08/03 03:36:08;;;;;;;10.57;3.97;;;18.50;99.90;;;;;;4990975;28;20026;-51
2023/08/03 03:38:54;;;;;;;11.38;3.63;;;18.50;99.90;;;;;;4990934;28;20427;-54
2023/08/03 03:41:40;;;;;;;11.07;4.10;;;18.50;99.90;;;;;;4991309;28;20030;-47
2023/08/03 03:44:26;;;;;;;8.73;3.50;;;18.50;99.90;;;;;;4991062;28;20042;-52
2023/08/03 03:47:12;;;;;;;6.78;3.13;;;18.60;99.90;;;;;;4999706;28;20402;-51
2023/08/03 03:49:58;;;;;;;9.98;3.30;;;18.60;99.90;;;;;;4990650;28;20034;-49
2023/08/03 03:52:44;;;;;;;8.98;3.10;;;18.60;99.90;;;;;;4991113;28;20053;-48
2023/08/03 03:55:31;;;;;;;9.73;3.72;;;18.60;99.90;;;;;;4992561;28;20030;-51
2023/08/03 03:58:16;;;;;;;8.07;3.47;;;18.60;99.90;;;;;;4990332;28;20030;-52
2023/08/03 04:01:02;;;;;;;9.73;3.40;;;18.60;99.90;;;;;;5005726;28;20101;-52
2023/08/03 04:03:48;;;;;;;9.88;3.35;;;18.60;99.90;;;;;;4991340;28;20027;-49
2023/08/03 04:06:34;;;;;;;10.02;4.13;;;18.60;99.90;;;;;;4990946;28;20026;-47
2023/08/03 04:09:20;;;;;;;10.07;3.55;;;18.60;99.90;;;;;;4991682;28;20105;-48
2023/08/03 04:12:06;;;;;;;9.73;3.33;;;18.60;99.90;;;;;;4991294;28;20034;-50
2023/08/03 04:14:52;;;;;;;11.05;3.78;;;18.60;99.90;;;;;;4990752;28;20112;-49
2023/08/03 04:17:38;;;;;;;7.05;3.00;;;18.60;99.90;;;;;;4975891;28;20034;-52
2023/08/03 04:20:24;;;;;;;7.13;3.28;;;18.60;99.90;;;;;;4990767;28;20034;-49
2023/08/03 04:23:10;;;;;;;8.82;3.50;;;18.60;99.90;;;;;;4990813;28;20022;-47
2023/08/03 04:25:56;;;;;;;9.93;3.40;;;18.70;99.90;;;;;;4991480;28;20647;-51
2023/08/03 04:28:42;;;;;;;8.45;3.35;;;18.70;99.90;;;;;;4977662;28;20376;-48
2023/08/03 04:31:28;;;;;;;8.60;3.58;;;18.70;99.90;;;;;;4979426;28;20038;-49
2023/08/03 04:34:14;;;;;;;11.93;3.72;;;18.70;99.90;;;;;;4980623;28;20034;-48
2023/08/03 04:37:00;;;;;;;5.60;3.22;;;18.70;99.90;;;;;;4994051;28;20045;-53
2023/08/03 04:39:46;;;;;;;7.53;3.20;;;18.80;99.90;;;;;;4993939;28;20058;-52
2023/08/03 04:42:32;;;;;;;9.85;3.22;;;18.80;99.90;;;;;;4994785;28;20058;-55
2023/08/03 04:45:18;;;;;;;6.85;3.10;;;18.80;99.90;;;;;;4995444;28;20555;-56
2023/08/03 04:48:04;;;;;;;8.77;3.63;;;18.80;99.90;;;;;;4993711;28;20411;-55
2023/08/03 04:50:50;;;;;;;5.53;2.80;;;18.90;99.90;;;;;;4995124;28;20496;-55
2023/08/03 04:53:36;;;;;;;8.60;3.50;;;18.90;99.90;;;;;;4995670;28;20411;-53
2023/08/03 04:56:22;;;;;;;11.88;4.43;;;18.90;99.90;;;;;;4994504;28;20092;-53
2023/08/03 04:59:07;;;;;;;8.00;3.60;;;19.00;99.90;;;;;;4994441;28;20022;-55
2023/08/03 05:01:53;;;;;;;8.45;3.60;;;19.10;99.90;;;;;;4994209;28;20025;-53
2023/08/03 05:04:39;;;;;;;4.97;2.70;;;19.00;99.90;;;;;;4993441;28;20037;-47
2023/08/03 05:07:27;;;;;;;9.40;3.10;;;19.00;99.90;;;;;;5004020;28;20585;-48
2023/08/03 05:10:13;;;;;;;10.32;3.30;;;19.10;99.90;;;;;;4994440;28;20038;-49
2023/08/03 05:12:59;;;;;;;7.22;3.13;;;19.00;99.90;;;;;;4992986;28;20109;-51
2023/08/03 05:15:45;;;;;;;8.70;3.08;;;19.10;99.90;;;;;;4993974;28;20041;-51
2023/08/03 05:18:31;;;;;;;8.40;3.78;;;19.10;99.90;;;;;;4993237;28;20539;-52
2023/08/03 05:21:17;;;;;;;8.68;2.72;;;19.20;99.90;;;;;;4993701;28;20045;-47
2023/08/03 05:24:04;;;;;;;7.85;3.63;;;19.20;99.90;;;;;;4993613;28;20058;-48
2023/08/03 05:26:49;;;;;;;4.13;2.40;;;19.30;99.90;;;;;;4992875;28;20085;-49
2023/08/03 05:29:35;;;;;;;9.25;2.90;;;19.20;99.90;;;;;;4993042;28;20046;-53
2023/08/03 05:32:25;;;;;;;7.53;3.13;;;19.20;99.90;;;;;;4993464;28;20026;-47
2023/08/03 05:35:11;;;;;;;6.82;3.10;;;19.30;99.90;;;;;;4994266;28;20058;-50
2023/08/03 05:37:57;;;;;;;5.57;2.40;;;19.30;99.90;;;;;;4993543;28;20026;-52
2023/08/03 05:40:43;;;;;;;5.50;2.60;;;19.30;99.90;;;;;;4993502;28;20109;-51
2023/08/03 05:43:29;;;;;;;6.85;2.83;;;19.40;99.90;;;;;;4993171;28;20045;-52
2023/08/03 05:46:16;;;;;;;4.88;2.42;;;19.40;99.90;;;;;;4993076;28;20469;-48
2023/08/03 05:49:02;;;;;;;5.43;2.20;;;19.40;99.90;;;;;;4994053;28;20116;-49
2023/08/03 05:51:50;;;;;;;7.15;2.55;;;19.40;99.90;;;;;;4993125;28;20027;-50
2023/08/03 05:54:36;;;;;;;9.55;2.97;;;19.60;99.90;;;;;;4994465;28;20034;-48
2023/08/03 05:57:22;;;;;;;3.83;2.20;;;19.50;99.90;;;;;;4992823;28;20030;-50
2023/08/03 06:00:16;;;;;;;8.25;2.50;;;19.50;99.90;;;;;;5004373;28;20106;-48
2023/08/03 06:03:03;;;;;;;6.18;2.40;;;19.60;99.90;;;;;;5011811;28;20061;-55
2023/08/03 06:05:50;;;;;;;4.57;2.00;;;19.60;99.90;;;;;;5011769;28;20030;-52
2023/08/03 06:08:36;;;;;;;4.90;1.95;;;19.60;99.90;;;;;;5009225;28;20018;-48
2023/08/03 06:11:22;;;;;;;3.88;2.10;;;19.60;99.90;;;;;;5000468;28;20030;-54
2023/08/03 06:14:14;;;;;;;5.45;2.10;;;19.60;99.90;;;;;;4993887;28;20039;-51
2023/08/03 06:17:00;;;;;;;3.50;2.35;;;19.60;99.90;;;;;;4992938;28;20026;-50
2023/08/03 06:19:46;;;;;;;3.90;2.20;;;19.60;99.90;;;;;;5008420;28;20120;-52
2023/08/03 06:22:32;;;;;;;5.05;1.92;;;19.80;99.90;;;;;;5012491;28;20025;-53
2023/08/03 06:25:21;;;;;;;3.45;1.80;;;19.90;99.90;;;;;;5012628;28;20610;-57
2023/08/03 06:28:10;;;;;;;2.45;1.90;;;20.00;99.90;;;;;;4997223;28;20104;-55
2023/08/03 06:30:56;;;;;;;5.25;2.33;;;20.00;99.90;;;;;;5012468;28;20087;-56
2023/08/03 06:33:44;;;;;;;2.88;1.75;;;20.00;99.90;;;;;;5011793;28;20036;-53
2023/08/03 06:36:30;;;;;;;2.38;2.00;;;20.00;99.90;;;;;;5013039;28;20414;-52
2023/08/03 06:39:16;;;;;;;3.05;1.98;;;20.10;99.90;;;;;;5011325;28;20129;-56
2023/08/03 06:42:04;;;;;;;4.10;1.80;;;20.10;99.90;;;;;;5011961;28;20022;-53
2023/08/03 06:44:50;;;;;;;5.13;1.90;;;20.10;99.90;;;;;;5011954;28;20032;-52
2023/08/03 06:47:36;;;;;;;3.30;1.77;;;20.10;99.90;;;;;;5010435;28;20113;-56
2023/08/03 06:50:22;;;;;;;6.47;1.92;;;20.10;99.90;;;;;;4992581;28;20402;-54
2023/08/03 06:53:08;;;;;;;2.75;1.80;;;20.00;99.90;;;;;;4978875;28;20046;-56
2023/08/03 06:55:54;;;;;;;2.83;1.70;;;20.00;99.90;;;;;;4992557;28;20034;-54
2023/08/03 06:58:40;;;;;;;4.85;2.42;;;20.00;99.90;;;;;;4991265;28;20031;-53
2023/08/03 07:01:26;;;;;;;4.80;2.10;;;20.10;99.90;;;;;;5001206;28;20038;-54
2023/08/03 07:04:12;;;;;;;3.08;2.10;;;20.20;99.90;;;;;;4994719;28;20485;-53
2023/08/03 07:06:58;;;;;;;2.45;1.92;;;20.40;99.90;;;;;;5010544;28;20023;-55
2023/08/03 07:09:50;;;;;;;3.33;1.70;;;20.20;99.90;;;;;;4995487;28;20030;-56
2023/08/03 07:12:36;;;;;;;4.00;1.85;;;20.20;99.90;;;;;;4992672;28;20034;-54
2023/08/03 07:15:22;;;;;;;2.80;2.10;;;20.30;99.90;;;;;;4995049;28;20038;-55
2023/08/03 07:18:09;;;;;;;5.45;1.52;;;20.40;99.90;;;;;;5010070;28;20037;-57
2023/08/03 07:20:55;;;;;;;4.00;1.98;;;20.40;99.90;;;;;;5010993;28;20022;-51
2023/08/03 07:23:41;;;;;;;3.83;1.90;;;20.30;99.90;;;;;;5010906;28;20030;-48
2023/08/03 07:26:26;;;;;;;3.50;1.90;;;20.40;99.90;;;;;;5010413;28;20022;-57
2023/08/03 07:29:12;;;;;;;3.35;2.13;;;20.40;99.90;;;;;;5009199;28;20030;-55
2023/08/03 07:31:58;;;;;;;6.45;1.77;;;20.30;99.90;;;;;;5011145;28;20072;-55
2023/08/03 07:34:44;;;;;;;4.95;2.10;;;20.30;99.90;;;;;;5010205;28;20042;-57
2023/08/03 07:37:30;;;;;;;3.63;1.70;;;20.30;99.90;;;;;;5009783;28;20041;-53
2023/08/03 07:40:16;;;;;;;2.70;1.55;;;20.20;99.90;;;;;;4991101;28;20076;-54
2023/08/03 07:43:02;;;;;;;4.72;1.77;;;20.40;99.90;;;;;;5010163;28;20042;-57
2023/08/03 07:45:48;;;;;;;4.82;2.17;;;20.50;99.90;;;;;;4996564;28;20044;-56
2023/08/03 07:48:34;;;;;;;3.83;1.85;;;20.40;99.90;;;;;;5009966;28;20026;-55
2023/08/03 07:51:20;;;;;;;3.28;1.77;;;20.40;99.90;;;;;;5007656;28;20120;-52
2023/08/03 07:54:06;;;;;;;5.60;2.28;;;20.50;99.90;;;;;;5009456;28;20041;-53
2023/08/03 07:56:52;;;;;;;4.55;1.85;;;20.40;99.90;;;;;;5012091;28;20029;-54
2023/08/03 07:59:38;;;;;;;2.53;1.90;;;20.50;99.90;;;;;;5007424;28;20097;-54
2023/08/03 08:02:24;;;;;;;4.95;2.00;;;20.50;99.40;;;;;;5002339;28;20022;-53
2023/08/03 08:05:10;;;;;;;3.63;2.00;;;20.50;99.40;;;;;;5008221;28;20676;-52
2023/08/03 08:07:56;;;;;;;2.97;1.60;;;20.60;99.50;;;;;;5009392;28;20045;-56
2023/08/03 08:10:42;;;;;;;3.20;1.98;;;20.60;99.00;;;;;;5008862;28;20041;-54
2023/08/03 08:13:28;;;;;;;3.05;1.65;;;20.70;99.10;;;;;;5008856;28;20125;-54
2023/08/03 08:16:15;;;;;;;4.72;1.95;;;20.70;99.10;;;;;;5009055;28;20030;-55
2023/08/03 08:19:01;;;;;;;4.95;2.17;;;20.80;98.40;;;;;;5010256;28;20026;-56
2023/08/03 08:21:47;;;;;;;6.78;2.00;;;20.80;98.20;;;;;;5009996;28;20037;-57
2023/08/03 08:24:33;;;;;;;6.43;2.35;;;20.80;98.60;;;;;;4996117;28;20065;-56
2023/08/03 08:27:18;;;;;;;3.03;2.00;;;20.80;99.00;;;;;;4994860;28;20022;-57
2023/08/03 08:30:05;;;;;;;10.40;1.80;;;20.90;98.20;;;;;;5010379;28;20030;-54
2023/08/03 08:32:52;;;;;;;2.38;1.70;;;21.00;98.00;;;;;;5010890;28;20576;-55
2023/08/03 08:35:38;;;;;;;4.25;2.08;;;21.00;97.90;;;;;;4982428;28;20034;-57
2023/08/03 08:38:24;;;;;;;3.10;1.92;;;21.00;97.60;;;;;;5008715;28;20454;-60
2023/08/03 08:41:10;;;;;;;3.70;1.83;;;21.00;97.80;;;;;;5007575;28;20164;-57
2023/08/03 08:43:56;;;;;;;4.63;2.10;;;21.20;97.80;;;;;;5009578;28;20572;-54
2023/08/03 08:46:43;;;;;;;5.95;1.90;;;21.30;97.30;;;;;;5009354;28;20049;-52
2023/08/03 08:49:29;;;;;;;3.85;2.20;;;21.40;97.50;;;;;;5009382;28;20030;-55
2023/08/03 08:52:17;;;;;;;4.00;2.10;;;21.40;96.90;;;;;;4994965;28;20533;-54
2023/08/03 08:55:24;;;;;;;5.70;1.90;;;21.30;97.00;;;;;;5009201;28;20026;-55
2023/08/03 08:58:09;;;;;;;4.03;1.65;;;21.20;97.30;;;;;;5009365;28;20029;-55
2023/08/03 09:01:03;;;;;;;5.82;2.13;;;21.20;97.40;;;;;;5009978;28;20033;-57
2023/08/03 09:03:55;;;;;;;4.13;1.58;;;21.30;97.40;;;;;;5009443;28;20030;-58
2023/08/03 09:06:44;;;;;;;3.78;1.90;;;21.60;96.70;;;;;;5009625;28;20029;-55
2023/08/03 09:09:35;;;;;;;3.35;2.10;;;21.30;96.60;;;;;;5008502;28;20120;-55
2023/08/03 09:12:25;;;;;;;4.00;1.90;;;21.10;97.20;;;;;;5009158;28;20414;-54
2023/08/03 09:15:11;;;;;;;3.40;2.75;;;21.20;97.30;;;;;;5010031;28;20414;-56
2023/08/03 09:18:04;;;;;;;5.38;1.90;;;21.20;97.50;;;;;;5009692;28;20026;-54
2023/08/03 09:20:50;;;;;;;5.90;2.00;;;21.30;97.00;;;;;;5012635;28;20034;-57
2023/08/03 09:23:37;;;;;;;3.20;1.65;;;21.30;97.10;;;;;;5011102;28;20520;-56
2023/08/03 09:26:23;;;;;;;3.60;1.65;;;21.20;97.10;;;;;;5012627;28;20030;-55
2023/08/03 09:29:16;;;;;;;2.58;1.88;;;21.20;97.50;;;;;;5013121;28;20104;-56
2023/08/03 09:32:04;;;;;;;3.45;1.50;;;21.60;96.90;;;;;;5013290;28;20018;-56
2023/08/03 09:34:52;;;;;;;2.92;1.65;;;21.70;96.60;;;;;;5009623;28;20510;-56
2023/08/03 09:37:38;;;;;;;4.35;1.80;;;21.70;96.30;;;;;;4993162;28;20045;-55
2023/08/03 09:40:24;;;;;;;3.00;1.40;;;21.70;96.10;;;;;;4994842;28;20170;-57
2023/08/03 09:43:12;;;;;;;4.95;1.73;;;21.80;96.40;;;;;;4995141;28;20053;-57
2023/08/03 09:45:58;;;;;;;3.53;1.63;;;21.80;96.00;;;;;;4994001;28;20030;-58
2023/08/03 09:48:44;;;;;;;2.47;1.70;;;21.70;96.40;;;;;;4979284;28;20109;-55
2023/08/03 09:51:32;;;;;;;2.92;1.80;;;21.50;96.30;;;;;;4979274;28;20415;-56
2023/08/03 09:54:52;;;;;;;1.55;1.42;;;21.50;96.60;;;;;;4992565;28;20050;-58
2023/08/03 09:57:43;;;;;;;3.25;1.80;;;21.40;96.70;;;;;;4993365;28;20566;-56
2023/08/03 10:00:29;;;;;;;3.20;1.75;;;21.10;97.30;;;;;;4993152;28;20046;-56
2023/08/03 10:03:20;;;;;;;5.70;1.90;;;21.30;97.20;;;;;;4993392;28;20026;-59
2023/08/03 10:06:12;;;;;;;5.95;2.10;;;21.60;96.70;;;;;;4996395;28;20050;-58
2023/08/03 10:09:06;;;;;;;5.63;1.90;;;21.70;96.10;;;;;;4993874;28;20089;-54
2023/08/03 10:11:55;;;;;;;1.55;1.30;;;21.80;96.10;;;;;;4993275;28;20026;-58
2023/08/03 10:14:42;;;;;;;4.13;2.10;;;21.90;95.90;;;;;;4993226;28;20026;-58
2023/08/03 10:17:29;;;;;;;4.57;1.30;;;21.90;95.70;;;;;;4994038;28;20083;-57
2023/08/03 10:20:16;;;;;;;2.90;1.60;;;22.10;95.60;;;;;;4979237;28;20030;-53
2023/08/03 10:23:17;;;;;;;5.47;1.60;;;22.10;95.60;;;;;;4993373;28;20034;-53
2023/08/03 10:26:03;;;;;;;7.13;1.92;;;22.20;95.50;;;;;;4978578;28;20491;-55
2023/08/03 10:28:50;;;;;;;5.97;1.95;;;22.20;95.30;;;;;;4991740;28;20034;-57
2023/08/03 10:31:53;;;;;;;4.50;1.67;;;22.30;95.50;;;;;;4992326;28;20026;-56
2023/08/03 10:34:40;;;;;;;1.88;1.45;;;21.90;95.40;;;;;;4992801;28;20026;-56
2023/08/03 10:37:26;;;;;;;2.60;1.67;;;21.90;95.50;;;;;;4991777;28;20113;-56
2023/08/03 10:40:22;;;;;;;4.18;1.80;;;21.90;95.40;;;;;;4993596;28;20031;-57
2023/08/03 10:43:08;;;;;;;2.95;1.80;;;21.80;95.50;;;;;;4992653;28;20038;-57
2023/08/03 10:45:54;;;;;;;3.72;1.60;;;21.80;95.50;;;;;;4992670;28;20114;-53
2023/08/03 10:48:41;;;;;;;1.67;1.40;;;21.80;95.50;;;;;;4993427;28;20030;-55
2023/08/03 10:51:27;;;;;;;4.60;2.15;;;21.80;95.30;;;;;;4993352;28;20084;-52
2023/08/03 10:54:18;;;;;;;4.55;1.67;;;21.90;95.50;;;;;;4978542;28;20054;-54
2023/08/03 10:57:08;;;;;;;2.55;1.48;;;22.00;95.70;;;;;;4992577;28;20095;-57
2023/08/03 10:59:56;;;;;;;1.77;1.55;;;22.20;95.70;;;;;;4991722;28;20160;-57
2023/08/03 11:02:43;;;;;;;3.28;1.80;;;22.10;95.70;;;;;;4992751;28;20514;-55
2023/08/03 11:05:30;;;;;;;2.00;1.80;;;22.00;95.60;;;;;;4992236;28;20029;-58
2023/08/03 11:08:19;;;;;;;1.88;1.33;;;21.90;95.50;;;;;;4991238;28;20030;-57
2023/08/03 11:11:12;;;;;;;1.95;1.50;;;21.70;95.60;;;;;;4991602;28;20026;-55
2023/08/03 11:13:58;;;;;;;5.85;1.63;;;21.60;95.80;;;;;;4992273;28;20030;-56
2023/08/03 11:16:45;;;;;;;3.88;1.42;;;21.60;95.80;;;;;;4991784;28;20034;-57
2023/08/03 11:19:37;;;;;;;2.40;1.70;;;21.60;95.60;;;;;;4991003;28;20030;-58
2023/08/03 11:22:24;;;;;;;2.50;1.42;;;21.60;95.80;;;;;;4991490;28;20080;-57
2023/08/03 11:25:10;;;;;;;4.45;1.95;;;21.60;95.60;;;;;;4991880;28;20027;-52
2023/08/03 11:27:56;;;;;;;2.28;1.50;;;21.70;95.90;;;;;;4998964;28;20495;-51
2023/08/03 11:30:45;;;;;;;7.45;2.88;;;21.70;95.70;;;;;;4997618;28;20507;-52
2023/08/03 11:33:36;;;;;;;3.80;1.90;;;21.60;95.90;;;;;;5000336;28;20022;-57
2023/08/03 11:36:23;;;;;;;1.75;1.63;;;21.70;95.80;;;;;;4990769;28;20025;-58
2023/08/03 11:39:09;;;;;;;1.88;1.15;;;21.90;95.80;;;;;;5009592;28;20117;-57
2023/08/03 11:41:56;;;;;;;3.17;1.80;;;22.00;95.60;;;;;;5006994;28;20111;-56
2023/08/03 11:44:45;;;;;;;7.15;2.03;;;22.00;95.50;;;;;;4991768;28;20031;-57
2023/08/03 11:47:44;;;;;;;5.32;2.58;;;21.90;95.50;;;;;;4990781;28;20419;-56
2023/08/03 11:50:30;;;;;;;3.15;1.85;;;21.90;95.80;;;;;;4991780;28;20022;-58
2023/08/03 11:53:26;;;;;;;3.67;1.65;;;21.90;95.80;;;;;;4992046;28;20031;-56
2023/08/03 11:56:14;;;;;;;5.75;1.70;;;22.00;95.80;;;;;;4991332;28;20499;-56
2023/08/03 11:59:04;;;;;;;6.13;1.85;;;22.00;95.80;;;;;;4990698;28;20034;-56
2023/08/03 12:01:50;;;;;;;3.38;1.60;;;22.10;95.70;;;;;;4991494;28;20037;-56
2023/08/03 12:04:36;;;;;;;3.15;1.30;;;22.10;95.90;;;;;;4990846;28;20027;-56
2023/08/03 12:07:23;;;;;;;2.55;1.45;;;22.00;95.80;;;;;;4991575;28;20496;-57
2023/08/03 12:10:13;;;;;;;2.67;1.67;;;22.00;95.90;;;;;;5007009;28;20113;-57
2023/08/03 12:12:59;;;;;;;3.80;1.40;;;22.20;95.90;;;;;;5011054;28;20030;-57
2023/08/03 12:15:45;;;;;;;5.25;1.75;;;22.10;95.30;;;;;;5011152;28;20083;-56
2023/08/03 12:18:31;;;;;;;2.67;1.40;;;22.20;94.80;;;;;;5010684;28;20522;-54
2023/08/03 12:21:17;;;;;;;3.75;1.48;;;22.10;94.90;;;;;;5010001;28;20513;-53
2023/08/03 12:24:05;;;;;;;2.45;1.23;;;22.30;95.10;;;;;;5000014;28;20542;-56
2023/08/03 12:26:51;;;;;;;2.20;1.50;;;22.10;94.90;;;;;;5010789;28;20101;-54
2023/08/03 12:29:37;;;;;;;2.17;1.60;;;22.30;95.20;;;;;;5010228;28;20498;-55
2023/08/03 12:32:23;;;;;;;1.60;1.50;;;22.60;94.80;;;;;;5010855;28;20483;-52
2023/08/03 12:35:10;;;;;;;3.03;1.40;;;22.70;94.60;;;;;;5010839;28;20037;-55
2023/08/03 12:37:56;;;;;;;2.00;1.50;;;22.90;94.60;;;;;;4995914;28;20034;-57
2023/08/03 12:40:42;;;;;;;3.88;1.88;;;22.70;94.50;;;;;;5010335;28;20474;-57
2023/08/03 12:43:28;;;;;;;2.40;1.50;;;22.50;94.50;;;;;;5010916;28;20398;-57
2023/08/03 12:46:14;;;;;;;3.17;1.85;;;22.40;94.80;;;;;;5010640;28;20024;-57
2023/08/03 12:49:00;;;;;;;2.88;1.38;;;22.50;95.00;;;;;;4996207;28;20049;-56
2023/08/03 12:51:46;;;;;;;3.10;1.73;;;22.30;94.90;;;;;;5009642;28;20629;-57
2023/08/03 12:54:32;;;;;;;7.10;1.98;;;22.40;95.00;;;;;;5015951;28;20076;-56
2023/08/03 12:57:18;;;;;;;7.05;1.90;;;22.50;94.80;;;;;;4999420;28;20109;-53
2023/08/03 13:00:05;;;;;;;4.47;2.30;;;22.60;94.80;;;;;;5013119;28;20065;-50
2023/08/03 13:02:51;;;;;;;2.45;1.50;;;22.70;94.60;;;;;;5013799;28;20022;-53
2023/08/03 13:05:37;;;;;;;2.42;1.48;;;22.80;94.70;;;;;;5012855;28;20030;-53
2023/08/03 13:08:23;;;;;;;5.35;1.88;;;22.70;94.20;;;;;;5009643;28;20037;-53
2023/08/03 13:11:09;;;;;;;4.43;2.05;;;22.60;94.50;;;;;;5003682;28;20073;-48
2023/08/03 13:13:55;;;;;;;3.38;1.80;;;22.40;94.70;;;;;;5018041;28;20026;-49
2023/08/03 13:16:41;;;;;;;1.95;1.55;;;22.40;94.80;;;;;;5014614;28;20093;-47
2023/08/03 13:19:27;;;;;;;4.20;1.73;;;22.50;94.60;;;;;;5012371;28;20033;-54
2023/08/03 13:22:13;;;;;;;3.10;1.75;;;22.40;94.80;;;;;;5013789;28;20026;-51
2023/08/03 13:25:00;;;;;;;5.43;2.13;;;22.30;94.90;;;;;;5013550;28;20518;-48
2023/08/03 13:27:46;;;;;;;2.55;1.40;;;22.20;94.70;;;;;;5013395;28;20033;-52
2023/08/03 13:30:32;;;;;;;2.40;1.63;;;22.20;95.20;;;;;;5012343;28;20026;-52
2023/08/03 13:33:18;;;;;;;5.07;1.73;;;22.30;95.00;;;;;;5012924;28;20037;-51
2023/08/03 13:36:04;;;;;;;3.08;1.67;;;22.40;94.70;;;;;;5012607;28;20846;-48
2023/08/03 13:38:50;;;;;;;1.67;1.40;;;22.70;94.60;;;;;;5012355;28;20042;-50
2023/08/03 13:41:36;;;;;;;2.42;1.70;;;23.00;94.40;;;;;;5010856;28;20541;-47
2023/08/03 13:44:22;;;;;;;3.33;1.70;;;23.10;93.90;;;;;;5012639;28;20129;-49
2023/08/03 13:47:08;;;;;;;5.65;1.77;;;23.20;94.10;;;;;;4998138;28;20104;-51
2023/08/03 13:49:54;;;;;;;3.33;1.83;;;23.30;93.60;;;;;;4993026;28;20416;-52
2023/08/03 13:52:40;;;;;;;4.10;1.75;;;22.90;93.80;;;;;;4992871;28;20031;-49
2023/08/03 13:55:26;;;;;;;7.35;1.80;;;22.50;94.50;;;;;;5017333;28;20034;-47
2023/08/03 13:58:12;;;;;;;5.15;1.42;;;22.40;94.60;;;;;;5015979;28;20033;-50
2023/08/03 14:00:58;;;;;;;3.53;1.55;;;22.20;94.50;;;;;;5009613;28;20029;-61
2023/08/03 14:03:44;;;;;;;2.72;1.65;;;22.30;94.60;;;;;;4994679;28;20423;-50
2023/08/03 14:06:32;;;;;;;5.55;2.03;;;22.60;94.20;;;;;;5012775;28;20026;-46
2023/08/03 14:09:18;;;;;;;4.60;1.90;;;22.70;94.30;;;;;;5003550;28;20038;-54
2023/08/03 14:12:05;;;;;;;1.95;1.75;;;23.10;93.80;;;;;;5000864;28;20109;-51
2023/08/03 14:14:51;;;;;;;7.03;2.17;;;23.40;93.70;;;;;;5001516;28;20085;-50
2023/08/03 14:17:37;;;;;;;2.88;1.70;;;23.60;93.20;;;;;;5006902;28;20112;-48
2023/08/03 14:20:23;;;;;;;1.88;1.65;;;23.60;92.90;;;;;;4995553;28;20491;-48
2023/08/03 14:23:09;;;;;;;5.85;1.83;;;23.40;93.20;;;;;;5012537;28;20104;-50
2023/08/03 14:25:55;;;;;;;4.65;1.70;;;23.60;93.20;;;;;;5011706;28;20030;-55
2023/08/03 14:28:41;;;;;;;4.07;1.98;;;23.60;93.10;;;;;;5011505;28;20085;-52